sensor_id;sensor_type;location;lat;lon;timestamp;temperature;humidity
27226;DHT22;14732;51.074;3.788;2023-08-31T00:00:29;14.40;99.90
27226;DHT22;14732;51.074;3.788;2023-08-31T00:02:57;14.40;99.90
27226;DHT22;14732;51.074;3.788;2023-08-31T00:05:22;14.40;99.90
27226;DHT22;14732;51.074;3.788;2023-08-31T00:07:50;14.20;99.90
27226;DHT22;14732;51.074;3.788;2023-08-31T00:10:16;14.30;99.90
27226;DHT22;14732;51.074;3.788;2023-08-31T00:12:43;14.30;99.90
27226;DHT22;14732;51.074;3.788;2023-08-31T00:15:09;14.20;99.90
27226;DHT22;14732;51.074;3.788;2023-08-31T00:17:35;14.20;99.90
27226;DHT22;14732;51.074;3.788;2023-08-31T00:20:01;14.30;99.90
27226;DHT22;14732;51.074;3.788;2023-08-31T00:22:31;14.30;99.90
27226;DHT22;14732;51.074;3.788;2023-08-31T00:24:56;14.20;99.90
27226;DHT22;14732;51.074;3.788;2023-08-31T00:27:22;14.20;99.90
27226;DHT22;14732;51.074;3.788;2023-08-31T00:29:48;14.20;99.90
27226;DHT22;14732;51.074;3.788;2023-08-31T00:32:15;14.20;99.90
27226;DHT22;14732;51.074;3.788;2023-08-31T00:34:40;14.20;99.90
27226;DHT22;14732;51.074;3.788;2023-08-31T00:37:06;14.30;99.90
27226;DHT22;14732;51.074;3.788;2023-08-31T00:39:32;14.30;99.90
27226;DHT22;14732;51.074;3.788;2023-08-31T00:41:59;14.30;99.90
27226;DHT22;14732;51.074;3.788;2023-08-31T00:44:25;14.30;99.90
27226;DHT22;14732;51.074;3.788;2023-08-31T00:46:51;14.20;99.90
27226;DHT22;14732;51.074;3.788;2023-08-31T00:49:17;14.20;99.90
27226;DHT22;14732;51.074;3.788;2023-08-31T00:51:43;14.20;99.90
27226;DHT22;14732;51.074;3.788;2023-08-31T00:54:15;14.20;99.90
27226;DHT22;14732;51.074;3.788;2023-08-31T00:56:42;14.30;99.90
27226;DHT22;14732;51.074;3.788;2023-08-31T00:59:07;14.20;99.90
27226;DHT22;14732;51.074;3.788;2023-08-31T01:01:36;14.30;99.90
27226;DHT22;14732;51.074;3.788;2023-08-31T01:04:20;14.20;99.90
27226;DHT22;14732;51.074;3.788;2023-08-31T01:09:45;14.20;99.90
27226;DHT22;14732;51.074;3.788;2023-08-31T01:12:25;14.20;99.90
27226;DHT22;14732;51.074;3.788;2023-08-31T01:15:03;14.10;99.90
27226;DHT22;14732;51.074;3.788;2023-08-31T01:17:30;14.10;99.90
27226;DHT22;14732;51.074;3.788;2023-08-31T01:19:59;14.10;99.90
27226;DHT22;14732;51.074;3.788;2023-08-31T01:22:48;14.10;99.90
27226;DHT22;14732;51.074;3.788;2023-08-31T01:25:16;14.20;99.90
27226;DHT22;14732;51.074;3.788;2023-08-31T01:27:43;14.10;99.90
27226;DHT22;14732;51.074;3.788;2023-08-31T01:30:09;14.10;99.90
27226;DHT22;14732;51.074;3.788;2023-08-31T01:32:34;14.10;99.90
27226;DHT22;14732;51.074;3.788;2023-08-31T01:35:02;14.10;99.90
27226;DHT22;14732;51.074;3.788;2023-08-31T01:40:17;14.20;99.90
27226;DHT22;14732;51.074;3.788;2023-08-31T01:42:46;14.20;99.90
27226;DHT22;14732;51.074;3.788;2023-08-31T01:45:15;14.20;99.90
27226;DHT22;14732;51.074;3.788;2023-08-31T01:47:42;14.20;99.90
27226;DHT22;14732;51.074;3.788;2023-08-31T01:50:08;14.20;99.90
27226;DHT22;14732;51.074;3.788;2023-08-31T01:52:34;14.20;99.90
27226;DHT22;14732;51.074;3.788;2023-08-31T01:55:00;14.20;99.90
27226;DHT22;14732;51.074;3.788;2023-08-31T01:57:25;14.20;99.90
27226;DHT22;14732;51.074;3.788;2023-08-31T01:59:51;14.10;99.90
27226;DHT22;14732;51.074;3.788;2023-08-31T02:02:17;14.10;99.90
27226;DHT22;14732;51.074;3.788;2023-08-31T02:04:43;14.00;99.90
27226;DHT22;14732;51.074;3.788;2023-08-31T02:07:09;14.00;99.90
27226;DHT22;14732;51.074;3.788;2023-08-31T02:09:34;14.10;99.90
27226;DHT22;14732;51.074;3.788;2023-08-31T02:12:00;14.10;99.90
27226;DHT22;14732;51.074;3.788;2023-08-31T02:14:26;14.10;99.90
27226;DHT22;14732;51.074;3.788;2023-08-31T02:16:51;14.10;99.90
27226;DHT22;14732;51.074;3.788;2023-08-31T02:19:17;14.10;99.90
27226;DHT22;14732;51.074;3.788;2023-08-31T02:21:43;14.10;99.90
27226;DHT22;14732;51.074;3.788;2023-08-31T02:24:08;14.20;99.90
27226;DHT22;14732;51.074;3.788;2023-08-31T02:26:35;14.10;99.90
27226;DHT22;14732;51.074;3.788;2023-08-31T02:29:03;14.20;99.90
27226;DHT22;14732;51.074;3.788;2023-08-31T02:31:28;14.20;99.90
27226;DHT22;14732;51.074;3.788;2023-08-31T02:33:54;14.10;99.90
27226;DHT22;14732;51.074;3.788;2023-08-31T02:36:20;14.10;99.90
27226;DHT22;14732;51.074;3.788;2023-08-31T02:38:48;14.10;99.90
27226;DHT22;14732;51.074;3.788;2023-08-31T02:41:15;14.10;99.90
27226;DHT22;14732;51.074;3.788;2023-08-31T02:43:42;14.10;99.90
27226;DHT22;14732;51.074;3.788;2023-08-31T02:46:08;14.20;99.90
27226;DHT22;14732;51.074;3.788;2023-08-31T02:48:34;14.10;99.90
27226;DHT22;14732;51.074;3.788;2023-08-31T02:50:59;14.10;99.90
27226;DHT22;14732;51.074;3.788;2023-08-31T02:53:32;14.10;99.90
27226;DHT22;14732;51.074;3.788;2023-08-31T02:55:57;14.10;99.90
27226;DHT22;14732;51.074;3.788;2023-08-31T02:58:23;14.10;99.90
27226;DHT22;14732;51.074;3.788;2023-08-31T03:00:49;14.00;99.90
27226;DHT22;14732;51.074;3.788;2023-08-31T03:03:15;14.00;99.90
27226;DHT22;14732;51.074;3.788;2023-08-31T03:05:41;14.10;99.90
27226;DHT22;14732;51.074;3.788;2023-08-31T03:08:07;14.10;99.90
27226;DHT22;14732;51.074;3.788;2023-08-31T03:10:33;14.10;99.90
27226;DHT22;14732;51.074;3.788;2023-08-31T03:12:58;14.10;99.90
27226;DHT22;14732;51.074;3.788;2023-08-31T03:15:24;14.10;99.90
27226;DHT22;14732;51.074;3.788;2023-08-31T03:17:50;14.10;99.90
27226;DHT22;14732;51.074;3.788;2023-08-31T03:20:15;14.10;99.90
27226;DHT22;14732;51.074;3.788;2023-08-31T03:22:41;14.10;99.90
27226;DHT22;14732;51.074;3.788;2023-08-31T03:25:07;14.10;99.90
27226;DHT22;14732;51.074;3.788;2023-08-31T03:27:33;14.10;99.90
27226;DHT22;14732;51.074;3.788;2023-08-31T03:29:59;14.10;99.90
27226;DHT22;14732;51.074;3.788;2023-08-31T03:32:24;14.10;99.90
27226;DHT22;14732;51.074;3.788;2023-08-31T03:34:50;14.00;99.90
27226;DHT22;14732;51.074;3.788;2023-08-31T03:37:16;14.00;99.90
27226;DHT22;14732;51.074;3.788;2023-08-31T03:39:41;14.00;99.90
27226;DHT22;14732;51.074;3.788;2023-08-31T03:42:08;14.00;99.90
27226;DHT22;14732;51.074;3.788;2023-08-31T03:44:35;14.00;99.90
27226;DHT22;14732;51.074;3.788;2023-08-31T03:47:01;14.00;99.90
27226;DHT22;14732;51.074;3.788;2023-08-31T03:49:26;14.00;99.90
27226;DHT22;14732;51.074;3.788;2023-08-31T03:51:52;14.00;99.90
27226;DHT22;14732;51.074;3.788;2023-08-31T03:54:19;14.00;99.90
27226;DHT22;14732;51.074;3.788;2023-08-31T03:56:45;14.00;99.90
27226;DHT22;14732;51.074;3.788;2023-08-31T03:59:11;14.00;99.90
27226;DHT22;14732;51.074;3.788;2023-08-31T04:01:37;14.10;99.90
27226;DHT22;14732;51.074;3.788;2023-08-31T04:04:03;14.10;99.90
27226;DHT22;14732;51.074;3.788;2023-08-31T04:06:29;14.10;99.90
27226;DHT22;14732;51.074;3.788;2023-08-31T04:08:55;14.10;99.90
27226;DHT22;14732;51.074;3.788;2023-08-31T04:11:21;14.10;99.90
27226;DHT22;14732;51.074;3.788;2023-08-31T04:13:47;14.10;99.90
27226;DHT22;14732;51.074;3.788;2023-08-31T04:16:12;14.10;99.90
27226;DHT22;14732;51.074;3.788;2023-08-31T04:18:38;14.10;99.90
27226;DHT22;14732;51.074;3.788;2023-08-31T04:21:04;14.00;99.90
27226;DHT22;14732;51.074;3.788;2023-08-31T04:23:31;14.00;99.90
27226;DHT22;14732;51.074;3.788;2023-08-31T04:25:56;14.10;99.90
27226;DHT22;14732;51.074;3.788;2023-08-31T04:28:23;14.10;99.90
27226;DHT22;14732;51.074;3.788;2023-08-31T04:30:49;14.10;99.90
27226;DHT22;14732;51.074;3.788;2023-08-31T04:33:15;14.00;99.90
27226;DHT22;14732;51.074;3.788;2023-08-31T04:35:41;13.90;99.90
27226;DHT22;14732;51.074;3.788;2023-08-31T04:38:07;14.00;99.90
27226;DHT22;14732;51.074;3.788;2023-08-31T04:40:33;14.10;99.90
27226;DHT22;14732;51.074;3.788;2023-08-31T04:42:59;14.10;99.90
27226;DHT22;14732;51.074;3.788;2023-08-31T04:45:24;13.90;99.90
27226;DHT22;14732;51.074;3.788;2023-08-31T04:47:50;13.90;99.90
27226;DHT22;14732;51.074;3.788;2023-08-31T04:50:17;13.80;99.90
27226;DHT22;14732;51.074;3.788;2023-08-31T04:52:43;13.70;99.90
27226;DHT22;14732;51.074;3.788;2023-08-31T04:55:08;13.70;99.90
27226;DHT22;14732;51.074;3.788;2023-08-31T04:57:34;13.90;99.90
27226;DHT22;14732;51.074;3.788;2023-08-31T05:00:00;14.00;99.90
27226;DHT22;14732;51.074;3.788;2023-08-31T05:02:27;14.00;99.90
27226;DHT22;14732;51.074;3.788;2023-08-31T05:04:53;14.00;99.90
27226;DHT22;14732;51.074;3.788;2023-08-31T05:07:18;14.00;99.90
27226;DHT22;14732;51.074;3.788;2023-08-31T05:09:44;14.00;99.90
27226;DHT22;14732;51.074;3.788;2023-08-31T05:12:10;14.10;99.90
27226;DHT22;14732;51.074;3.788;2023-08-31T05:14:35;14.10;99.90
27226;DHT22;14732;51.074;3.788;2023-08-31T05:17:03;14.10;99.90
27226;DHT22;14732;51.074;3.788;2023-08-31T05:19:30;14.20;99.90
27226;DHT22;14732;51.074;3.788;2023-08-31T05:21:56;14.20;99.90
27226;DHT22;14732;51.074;3.788;2023-08-31T05:24:21;14.20;99.90
27226;DHT22;14732;51.074;3.788;2023-08-31T05:26:47;14.30;99.90
27226;DHT22;14732;51.074;3.788;2023-08-31T05:29:13;14.30;99.90
27226;DHT22;14732;51.074;3.788;2023-08-31T05:31:38;14.30;99.90
27226;DHT22;14732;51.074;3.788;2023-08-31T05:34:04;14.30;99.90
27226;DHT22;14732;51.074;3.788;2023-08-31T05:36:30;14.40;99.90
27226;DHT22;14732;51.074;3.788;2023-08-31T05:38:55;14.40;99.90
27226;DHT22;14732;51.074;3.788;2023-08-31T05:41:21;14.40;99.90
27226;DHT22;14732;51.074;3.788;2023-08-31T05:43:46;14.40;99.90
27226;DHT22;14732;51.074;3.788;2023-08-31T05:46:12;14.40;99.90
27226;DHT22;14732;51.074;3.788;2023-08-31T05:48:38;14.40;99.90
27226;DHT22;14732;51.074;3.788;2023-08-31T05:51:04;14.40;99.90
27226;DHT22;14732;51.074;3.788;2023-08-31T05:53:30;14.40;99.90
27226;DHT22;14732;51.074;3.788;2023-08-31T05:55:57;14.50;99.90
27226;DHT22;14732;51.074;3.788;2023-08-31T05:58:32;14.60;99.90
27226;DHT22;14732;51.074;3.788;2023-08-31T06:00:58;14.60;99.90
27226;DHT22;14732;51.074;3.788;2023-08-31T06:03:25;14.60;99.90
27226;DHT22;14732;51.074;3.788;2023-08-31T06:05:50;14.60;99.90
27226;DHT22;14732;51.074;3.788;2023-08-31T06:08:16;14.60;99.90
27226;DHT22;14732;51.074;3.788;2023-08-31T06:10:43;14.60;99.90
27226;DHT22;14732;51.074;3.788;2023-08-31T06:13:09;14.70;99.90
27226;DHT22;14732;51.074;3.788;2023-08-31T06:15:34;14.90;99.90
27226;DHT22;14732;51.074;3.788;2023-08-31T06:18:00;14.90;99.90
27226;DHT22;14732;51.074;3.788;2023-08-31T06:20:25;15.10;99.90
27226;DHT22;14732;51.074;3.788;2023-08-31T06:22:51;15.20;99.90
27226;DHT22;14732;51.074;3.788;2023-08-31T06:25:17;15.20;99.90
27226;DHT22;14732;51.074;3.788;2023-08-31T06:27:44;15.40;99.90
27226;DHT22;14732;51.074;3.788;2023-08-31T06:30:10;15.50;99.90
27226;DHT22;14732;51.074;3.788;2023-08-31T06:32:44;15.50;99.90
27226;DHT22;14732;51.074;3.788;2023-08-31T06:35:14;15.60;99.90
27226;DHT22;14732;51.074;3.788;2023-08-31T06:37:43;15.60;99.90
27226;DHT22;14732;51.074;3.788;2023-08-31T06:40:09;15.80;99.90
27226;DHT22;14732;51.074;3.788;2023-08-31T06:42:36;16.00;99.90
27226;DHT22;14732;51.074;3.788;2023-08-31T06:45:06;16.10;99.90
27226;DHT22;14732;51.074;3.788;2023-08-31T06:47:32;16.30;99.90
27226;DHT22;14732;51.074;3.788;2023-08-31T06:49:58;16.40;99.90
27226;DHT22;14732;51.074;3.788;2023-08-31T06:52:25;16.30;99.90
27226;DHT22;14732;51.074;3.788;2023-08-31T06:54:51;16.40;99.90
27226;DHT22;14732;51.074;3.788;2023-08-31T06:57:21;16.50;99.90
27226;DHT22;14732;51.074;3.788;2023-08-31T06:59:47;16.70;99.90
27226;DHT22;14732;51.074;3.788;2023-08-31T07:02:13;16.80;99.90
27226;DHT22;14732;51.074;3.788;2023-08-31T07:04:39;16.90;99.90
27226;DHT22;14732;51.074;3.788;2023-08-31T07:07:05;17.00;99.90
27226;DHT22;14732;51.074;3.788;2023-08-31T07:09:31;17.10;99.90
27226;DHT22;14732;51.074;3.788;2023-08-31T07:11:58;17.00;99.90
27226;DHT22;14732;51.074;3.788;2023-08-31T07:14:24;17.20;99.90
27226;DHT22;14732;51.074;3.788;2023-08-31T07:16:50;17.20;99.90
27226;DHT22;14732;51.074;3.788;2023-08-31T07:19:21;17.20;99.90
27226;DHT22;14732;51.074;3.788;2023-08-31T07:21:53;17.20;99.90
27226;DHT22;14732;51.074;3.788;2023-08-31T07:24:37;17.30;99.90
27226;DHT22;14732;51.074;3.788;2023-08-31T07:27:03;17.00;99.90
27226;DHT22;14732;51.074;3.788;2023-08-31T07:29:29;16.90;99.90
27226;DHT22;14732;51.074;3.788;2023-08-31T07:31:56;17.10;99.90
27226;DHT22;14732;51.074;3.788;2023-08-31T07:34:25;17.30;99.90
27226;DHT22;14732;51.074;3.788;2023-08-31T07:36:52;17.30;99.90
27226;DHT22;14732;51.074;3.788;2023-08-31T07:39:19;17.20;99.90
27226;DHT22;14732;51.074;3.788;2023-08-31T07:46:17;17.40;99.90
27226;DHT22;14732;51.074;3.788;2023-08-31T07:49:21;17.50;99.90
27226;DHT22;14732;51.074;3.788;2023-08-31T07:55:08;17.80;99.90
27226;DHT22;14732;51.074;3.788;2023-08-31T07:58:03;17.90;99.90
27226;DHT22;14732;51.074;3.788;2023-08-31T08:00:42;17.90;99.90
27226;DHT22;14732;51.074;3.788;2023-08-31T08:03:09;18.10;99.90
27226;DHT22;14732;51.074;3.788;2023-08-31T08:05:34;17.90;99.90
27226;DHT22;14732;51.074;3.788;2023-08-31T08:08:20;17.80;99.90
27226;DHT22;14732;51.074;3.788;2023-08-31T08:10:52;18.10;99.90
27226;DHT22;14732;51.074;3.788;2023-08-31T08:13:26;18.10;99.90
27226;DHT22;14732;51.074;3.788;2023-08-31T08:15:52;18.20;99.90
27226;DHT22;14732;51.074;3.788;2023-08-31T08:18:18;18.20;99.90
27226;DHT22;14732;51.074;3.788;2023-08-31T08:20:47;18.40;99.90
27226;DHT22;14732;51.074;3.788;2023-08-31T08:23:13;18.40;99.90
27226;DHT22;14732;51.074;3.788;2023-08-31T08:25:39;18.40;99.90
27226;DHT22;14732;51.074;3.788;2023-08-31T08:28:04;18.60;99.90
27226;DHT22;14732;51.074;3.788;2023-08-31T08:30:30;18.80;99.90
27226;DHT22;14732;51.074;3.788;2023-08-31T08:32:56;18.80;99.90
27226;DHT22;14732;51.074;3.788;2023-08-31T08:35:22;18.70;99.90
27226;DHT22;14732;51.074;3.788;2023-08-31T08:37:48;18.50;99.90
27226;DHT22;14732;51.074;3.788;2023-08-31T08:40:13;18.40;99.90
27226;DHT22;14732;51.074;3.788;2023-08-31T08:42:41;18.80;99.90
27226;DHT22;14732;51.074;3.788;2023-08-31T08:45:14;19.10;99.90
27226;DHT22;14732;51.074;3.788;2023-08-31T08:47:43;19.20;99.90
27226;DHT22;14732;51.074;3.788;2023-08-31T08:50:11;19.40;99.90
27226;DHT22;14732;51.074;3.788;2023-08-31T08:52:38;19.70;99.90
27226;DHT22;14732;51.074;3.788;2023-08-31T08:55:04;20.00;99.90
27226;DHT22;14732;51.074;3.788;2023-08-31T08:57:31;20.10;99.90
27226;DHT22;14732;51.074;3.788;2023-08-31T08:59:58;20.40;99.90
27226;DHT22;14732;51.074;3.788;2023-08-31T09:02:24;20.70;99.90
27226;DHT22;14732;51.074;3.788;2023-08-31T09:04:50;21.10;99.90
27226;DHT22;14732;51.074;3.788;2023-08-31T09:07:20;21.50;99.90
27226;DHT22;14732;51.074;3.788;2023-08-31T09:09:53;22.00;99.90
27226;DHT22;14732;51.074;3.788;2023-08-31T09:12:23;23.10;99.90
27226;DHT22;14732;51.074;3.788;2023-08-31T09:15:03;24.10;99.90
27226;DHT22;14732;51.074;3.788;2023-08-31T09:17:42;25.30;99.90
27226;DHT22;14732;51.074;3.788;2023-08-31T09:20:09;25.80;99.90
27226;DHT22;14732;51.074;3.788;2023-08-31T09:22:35;26.30;99.90
27226;DHT22;14732;51.074;3.788;2023-08-31T09:25:01;27.20;99.90
27226;DHT22;14732;51.074;3.788;2023-08-31T09:27:29;29.00;99.90
27226;DHT22;14732;51.074;3.788;2023-08-31T09:29:56;30.40;99.90
27226;DHT22;14732;51.074;3.788;2023-08-31T09:32:22;31.20;99.90
27226;DHT22;14732;51.074;3.788;2023-08-31T09:34:48;31.80;99.90
27226;DHT22;14732;51.074;3.788;2023-08-31T09:37:16;31.30;99.90
27226;DHT22;14732;51.074;3.788;2023-08-31T09:39:42;30.40;99.90
27226;DHT22;14732;51.074;3.788;2023-08-31T09:42:08;29.60;99.90
27226;DHT22;14732;51.074;3.788;2023-08-31T09:44:40;28.70;99.90
27226;DHT22;14732;51.074;3.788;2023-08-31T09:47:07;28.00;99.90
27226;DHT22;14732;51.074;3.788;2023-08-31T09:49:34;27.10;99.90
27226;DHT22;14732;51.074;3.788;2023-08-31T09:52:03;26.20;99.90
27226;DHT22;14732;51.074;3.788;2023-08-31T09:54:29;25.30;99.90
27226;DHT22;14732;51.074;3.788;2023-08-31T09:56:56;25.00;99.90
27226;DHT22;14732;51.074;3.788;2023-08-31T09:59:23;24.20;99.90
27226;DHT22;14732;51.074;3.788;2023-08-31T10:01:49;23.90;99.90
27226;DHT22;14732;51.074;3.788;2023-08-31T10:04:15;23.40;99.90
27226;DHT22;14732;51.074;3.788;2023-08-31T10:06:42;23.00;99.90
27226;DHT22;14732;51.074;3.788;2023-08-31T10:09:09;22.80;99.90
27226;DHT22;14732;51.074;3.788;2023-08-31T10:11:41;23.00;99.90
27226;DHT22;14732;51.074;3.788;2023-08-31T10:14:09;22.90;99.90
27226;DHT22;14732;51.074;3.788;2023-08-31T10:16:36;22.80;99.90
27226;DHT22;14732;51.074;3.788;2023-08-31T10:19:04;23.10;99.90
27226;DHT22;14732;51.074;3.788;2023-08-31T10:21:30;23.10;99.90
27226;DHT22;14732;51.074;3.788;2023-08-31T10:23:56;23.00;99.90
27226;DHT22;14732;51.074;3.788;2023-08-31T10:26:31;22.90;99.90
27226;DHT22;14732;51.074;3.788;2023-08-31T10:28:58;23.20;99.90
27226;DHT22;14732;51.074;3.788;2023-08-31T10:31:33;23.30;99.90
27226;DHT22;14732;51.074;3.788;2023-08-31T10:34:01;23.10;99.90
27226;DHT22;14732;51.074;3.788;2023-08-31T10:36:39;23.00;99.90
27226;DHT22;14732;51.074;3.788;2023-08-31T10:39:10;23.30;99.90
27226;DHT22;14732;51.074;3.788;2023-08-31T10:41:36;23.10;99.90
27226;DHT22;14732;51.074;3.788;2023-08-31T10:44:02;22.80;99.90
27226;DHT22;14732;51.074;3.788;2023-08-31T10:46:45;22.50;99.90
27226;DHT22;14732;51.074;3.788;2023-08-31T10:51:41;22.30;99.90
27226;DHT22;14732;51.074;3.788;2023-08-31T10:54:21;22.20;99.90
27226;DHT22;14732;51.074;3.788;2023-08-31T10:56:53;22.30;99.90
27226;DHT22;14732;51.074;3.788;2023-08-31T10:59:20;22.60;99.90
27226;DHT22;14732;51.074;3.788;2023-08-31T11:04:28;22.30;99.90
27226;DHT22;14732;51.074;3.788;2023-08-31T11:09:39;22.30;99.90
27226;DHT22;14732;51.074;3.788;2023-08-31T11:12:05;22.00;99.90
27226;DHT22;14732;51.074;3.788;2023-08-31T11:14:31;22.00;99.90
27226;DHT22;14732;51.074;3.788;2023-08-31T11:16:56;22.50;99.90
27226;DHT22;14732;51.074;3.788;2023-08-31T11:19:22;22.90;99.90
27226;DHT22;14732;51.074;3.788;2023-08-31T11:21:48;22.90;99.90
27226;DHT22;14732;51.074;3.788;2023-08-31T11:24:16;22.90;99.90
27226;DHT22;14732;51.074;3.788;2023-08-31T11:26:42;23.20;99.90
27226;DHT22;14732;51.074;3.788;2023-08-31T11:29:08;23.20;99.90
27226;DHT22;14732;51.074;3.788;2023-08-31T11:31:40;23.30;99.90
27226;DHT22;14732;51.074;3.788;2023-08-31T11:34:07;23.50;99.90
27226;DHT22;14732;51.074;3.788;2023-08-31T11:36:37;23.50;99.90
27226;DHT22;14732;51.074;3.788;2023-08-31T11:39:03;23.60;99.90
27226;DHT22;14732;51.074;3.788;2023-08-31T11:41:35;23.80;99.90
27226;DHT22;14732;51.074;3.788;2023-08-31T11:44:04;23.70;99.90
27226;DHT22;14732;51.074;3.788;2023-08-31T11:46:30;23.70;99.90
27226;DHT22;14732;51.074;3.788;2023-08-31T11:48:58;23.70;99.90
27226;DHT22;14732;51.074;3.788;2023-08-31T11:51:24;23.60;99.90
27226;DHT22;14732;51.074;3.788;2023-08-31T11:53:50;23.30;99.90
27226;DHT22;14732;51.074;3.788;2023-08-31T11:56:16;23.50;99.90
27226;DHT22;14732;51.074;3.788;2023-08-31T11:58:42;23.40;99.90
27226;DHT22;14732;51.074;3.788;2023-08-31T12:01:08;23.10;99.90
27226;DHT22;14732;51.074;3.788;2023-08-31T12:03:44;22.50;99.90
27226;DHT22;14732;51.074;3.788;2023-08-31T12:06:10;22.40;99.90
27226;DHT22;14732;51.074;3.788;2023-08-31T12:08:37;22.40;99.90
27226;DHT22;14732;51.074;3.788;2023-08-31T12:11:06;22.30;99.90
27226;DHT22;14732;51.074;3.788;2023-08-31T12:13:31;22.50;99.90
27226;DHT22;14732;51.074;3.788;2023-08-31T12:15:58;22.60;99.90
27226;DHT22;14732;51.074;3.788;2023-08-31T12:18:23;22.20;99.90
27226;DHT22;14732;51.074;3.788;2023-08-31T12:20:52;22.00;99.90
27226;DHT22;14732;51.074;3.788;2023-08-31T12:23:18;22.30;99.90
27226;DHT22;14732;51.074;3.788;2023-08-31T12:25:53;22.40;99.90
27226;DHT22;14732;51.074;3.788;2023-08-31T12:28:22;22.20;99.90
27226;DHT22;14732;51.074;3.788;2023-08-31T12:30:54;22.00;99.90
27226;DHT22;14732;51.074;3.788;2023-08-31T12:33:23;22.10;99.90
27226;DHT22;14732;51.074;3.788;2023-08-31T12:35:50;22.10;99.90
27226;DHT22;14732;51.074;3.788;2023-08-31T12:38:15;22.20;99.90
27226;DHT22;14732;51.074;3.788;2023-08-31T12:40:41;22.30;99.90
27226;DHT22;14732;51.074;3.788;2023-08-31T12:43:07;22.40;99.90
27226;DHT22;14732;51.074;3.788;2023-08-31T12:45:33;22.50;99.90
27226;DHT22;14732;51.074;3.788;2023-08-31T12:47:59;22.10;99.90
27226;DHT22;14732;51.074;3.788;2023-08-31T12:50:25;22.10;99.90
27226;DHT22;14732;51.074;3.788;2023-08-31T12:52:50;22.20;99.90
27226;DHT22;14732;51.074;3.788;2023-08-31T12:55:16;22.70;99.90
27226;DHT22;14732;51.074;3.788;2023-08-31T12:57:43;22.90;99.90
27226;DHT22;14732;51.074;3.788;2023-08-31T13:00:10;22.90;99.90
27226;DHT22;14732;51.074;3.788;2023-08-31T13:02:39;23.20;99.90
27226;DHT22;14732;51.074;3.788;2023-08-31T13:05:09;23.10;99.90
27226;DHT22;14732;51.074;3.788;2023-08-31T13:07:38;22.70;99.90
27226;DHT22;14732;51.074;3.788;2023-08-31T13:10:05;22.80;99.90
27226;DHT22;14732;51.074;3.788;2023-08-31T13:12:32;22.60;99.90
27226;DHT22;14732;51.074;3.788;2023-08-31T13:14:58;22.70;99.90
27226;DHT22;14732;51.074;3.788;2023-08-31T13:17:24;22.70;99.90
27226;DHT22;14732;51.074;3.788;2023-08-31T13:19:53;22.80;99.90
27226;DHT22;14732;51.074;3.788;2023-08-31T13:22:19;23.20;99.90
27226;DHT22;14732;51.074;3.788;2023-08-31T13:24:46;23.30;99.90
27226;DHT22;14732;51.074;3.788;2023-08-31T13:27:11;23.40;99.90
27226;DHT22;14732;51.074;3.788;2023-08-31T13:29:38;23.30;99.90
27226;DHT22;14732;51.074;3.788;2023-08-31T13:32:05;23.40;99.90
27226;DHT22;14732;51.074;3.788;2023-08-31T13:34:31;23.10;99.90
27226;DHT22;14732;51.074;3.788;2023-08-31T13:36:56;23.20;99.90
27226;DHT22;14732;51.074;3.788;2023-08-31T13:39:22;23.00;99.90
27226;DHT22;14732;51.074;3.788;2023-08-31T13:41:50;23.00;99.90
27226;DHT22;14732;51.074;3.788;2023-08-31T13:44:17;22.70;99.90
27226;DHT22;14732;51.074;3.788;2023-08-31T13:46:43;22.60;99.90
27226;DHT22;14732;51.074;3.788;2023-08-31T13:49:08;22.50;99.90
27226;DHT22;14732;51.074;3.788;2023-08-31T13:51:34;22.70;99.90
27226;DHT22;14732;51.074;3.788;2023-08-31T13:54:01;22.90;99.90
27226;DHT22;14732;51.074;3.788;2023-08-31T13:56:30;23.10;99.90
27226;DHT22;14732;51.074;3.788;2023-08-31T13:58:56;22.80;99.90
27226;DHT22;14732;51.074;3.788;2023-08-31T14:01:22;22.70;99.90
27226;DHT22;14732;51.074;3.788;2023-08-31T14:03:47;22.80;99.90
27226;DHT22;14732;51.074;3.788;2023-08-31T14:06:13;22.90;99.90
27226;DHT22;14732;51.074;3.788;2023-08-31T14:08:40;22.90;99.90
27226;DHT22;14732;51.074;3.788;2023-08-31T14:11:06;22.90;99.90
27226;DHT22;14732;51.074;3.788;2023-08-31T14:13:32;22.60;99.90
27226;DHT22;14732;51.074;3.788;2023-08-31T14:15:59;22.40;99.90
27226;DHT22;14732;51.074;3.788;2023-08-31T14:18:26;21.80;99.90
27226;DHT22;14732;51.074;3.788;2023-08-31T14:20:54;21.60;99.90
27226;DHT22;14732;51.074;3.788;2023-08-31T14:23:20;21.30;99.90
27226;DHT22;14732;51.074;3.788;2023-08-31T14:25:46;21.40;99.90
27226;DHT22;14732;51.074;3.788;2023-08-31T14:28:11;21.30;99.90
27226;DHT22;14732;51.074;3.788;2023-08-31T14:30:37;21.10;99.90
27226;DHT22;14732;51.074;3.788;2023-08-31T14:33:04;21.10;99.90
27226;DHT22;14732;51.074;3.788;2023-08-31T14:35:30;21.30;99.90
27226;DHT22;14732;51.074;3.788;2023-08-31T14:37:56;21.40;99.90
27226;DHT22;14732;51.074;3.788;2023-08-31T14:40:22;21.70;99.90
27226;DHT22;14732;51.074;3.788;2023-08-31T14:42:47;21.80;99.90
27226;DHT22;14732;51.074;3.788;2023-08-31T14:45:13;21.90;99.90
27226;DHT22;14732;51.074;3.788;2023-08-31T14:47:39;21.90;99.90
27226;DHT22;14732;51.074;3.788;2023-08-31T14:50:04;22.00;99.90
27226;DHT22;14732;51.074;3.788;2023-08-31T14:52:30;22.00;99.90
27226;DHT22;14732;51.074;3.788;2023-08-31T14:54:56;22.10;99.90
27226;DHT22;14732;51.074;3.788;2023-08-31T14:57:22;22.10;99.90
27226;DHT22;14732;51.074;3.788;2023-08-31T14:59:47;22.20;99.90
27226;DHT22;14732;51.074;3.788;2023-08-31T15:02:13;22.20;99.90
27226;DHT22;14732;51.074;3.788;2023-08-31T15:04:41;22.10;99.90
27226;DHT22;14732;51.074;3.788;2023-08-31T15:07:06;22.00;99.90
27226;DHT22;14732;51.074;3.788;2023-08-31T15:09:32;22.10;99.90
27226;DHT22;14732;51.074;3.788;2023-08-31T15:11:58;22.40;99.90
27226;DHT22;14732;51.074;3.788;2023-08-31T15:14:24;22.20;99.90
27226;DHT22;14732;51.074;3.788;2023-08-31T15:16:49;21.90;99.90
27226;DHT22;14732;51.074;3.788;2023-08-31T15:19:15;21.80;99.90
27226;DHT22;14732;51.074;3.788;2023-08-31T15:21:41;21.80;99.90
27226;DHT22;14732;51.074;3.788;2023-08-31T15:24:06;22.00;99.90
27226;DHT22;14732;51.074;3.788;2023-08-31T15:26:32;21.90;99.90
27226;DHT22;14732;51.074;3.788;2023-08-31T15:28:58;21.70;99.90
27226;DHT22;14732;51.074;3.788;2023-08-31T15:31:25;21.80;99.90
27226;DHT22;14732;51.074;3.788;2023-08-31T15:33:50;21.70;99.90
27226;DHT22;14732;51.074;3.788;2023-08-31T15:36:16;21.70;99.90
27226;DHT22;14732;51.074;3.788;2023-08-31T15:38:42;21.50;99.90
27226;DHT22;14732;51.074;3.788;2023-08-31T15:41:08;21.50;99.90
27226;DHT22;14732;51.074;3.788;2023-08-31T15:43:35;21.50;99.90
27226;DHT22;14732;51.074;3.788;2023-08-31T15:46:03;21.60;99.90
27226;DHT22;14732;51.074;3.788;2023-08-31T15:48:29;21.60;99.90
27226;DHT22;14732;51.074;3.788;2023-08-31T15:50:56;21.60;99.90